createdAt,value
2023-06-17T00:01:20.838Z,16.43
2023-06-17T00:03:48.388Z,10.10
2023-06-17T00:06:15.852Z,38.47
2023-06-17T00:08:43.304Z,33.40
2023-06-17T00:11:11.963Z,17.20
2023-06-17T00:13:39.859Z,39.90
2023-06-17T00:16:07.390Z,40.77
2023-06-17T00:18:36.231Z,28.10
2023-06-17T00:21:03.934Z,16.63
2023-06-17T00:23:32.071Z,13.47
2023-06-17T00:25:59.605Z,21.63
2023-06-17T00:28:27.059Z,30.53
2023-06-17T00:30:54.556Z,30.33
2023-06-17T00:33:21.990Z,22.60
2023-06-17T00:35:51.862Z,13.07
2023-06-17T00:38:20.409Z,22.13
2023-06-17T00:40:47.849Z,14.40
2023-06-17T00:43:15.510Z,11.00
2023-06-17T00:45:43.032Z,8.40
2023-06-17T00:48:12.010Z,9.87
2023-06-17T00:50:39.976Z,12.63
2023-06-17T00:53:09.137Z,10.47
2023-06-17T00:55:37.040Z,15.63
2023-06-17T00:58:05.068Z,14.73
2023-06-17T01:00:32.513Z,10.53
2023-06-17T01:03:00.227Z,23.10
2023-06-17T01:05:28.418Z,18.50
2023-06-17T01:08:11.264Z,10.10
2023-06-17T01:10:46.706Z,11.47
2023-06-17T01:13:17.148Z,14.23
2023-06-17T01:15:45.643Z,23.90
2023-06-17T01:18:19.001Z,28.37
2023-06-17T01:20:48.243Z,22.57
2023-06-17T01:23:16.946Z,18.03
2023-06-17T01:25:47.075Z,21.67
2023-06-17T01:28:17.752Z,19.07
2023-06-17T01:30:46.152Z,27.07
2023-06-17T01:33:14.763Z,28.77
2023-06-17T01:35:47.991Z,18.53
2023-06-17T01:38:21.076Z,8.83
2023-06-17T01:40:59.728Z,14.17
2023-06-17T01:43:28.141Z,16.73
2023-06-17T01:45:57.554Z,11.20
2023-06-17T01:48:25.475Z,13.53
2023-06-17T01:50:53.195Z,23.57
2023-06-17T01:53:20.789Z,23.80
2023-06-17T01:55:48.279Z,15.37
2023-06-17T01:58:17.144Z,28.40
2023-06-17T02:00:44.620Z,15.93
2023-06-17T02:03:12.199Z,12.60
2023-06-17T02:05:39.686Z,25.63
2023-06-17T02:08:07.336Z,18.43
2023-06-17T02:10:34.912Z,27.63
2023-06-17T02:13:04.474Z,9.60
2023-06-17T02:15:33.249Z,11.70
2023-06-17T02:18:01.696Z,9.50
2023-06-17T02:20:29.306Z,9.37
2023-06-17T02:22:56.763Z,15.10
2023-06-17T02:25:24.254Z,15.53
2023-06-17T02:27:52.631Z,11.23
2023-06-17T02:30:20.502Z,17.10
2023-06-17T02:32:49.560Z,14.17
2023-06-17T02:35:17.268Z,24.17
2023-06-17T02:37:45.558Z,13.50
2023-06-17T02:40:13.135Z,9.23
2023-06-17T02:42:40.993Z,9.33
2023-06-17T02:45:12.267Z,15.13
2023-06-17T02:47:39.864Z,12.47
2023-06-17T02:50:09.597Z,11.47
2023-06-17T02:52:38.390Z,9.87
2023-06-17T02:55:06.968Z,12.60
2023-06-17T02:57:34.502Z,15.13
2023-06-17T03:00:02.025Z,11.00
2023-06-17T03:02:29.554Z,30.43
2023-06-17T03:04:57.882Z,17.83
2023-06-17T03:07:26.636Z,21.00
2023-06-17T03:09:54.088Z,19.40
2023-06-17T03:12:21.513Z,16.47
2023-06-17T03:14:49.056Z,13.40
2023-06-17T03:17:16.533Z,12.87
2023-06-17T03:19:44.882Z,20.80
2023-06-17T03:22:12.462Z,16.97
2023-06-17T03:24:41.420Z,11.23
2023-06-17T03:27:08.950Z,11.27
2023-06-17T03:29:36.618Z,12.10
2023-06-17T03:32:04.550Z,12.13
2023-06-17T03:34:32.623Z,12.13
2023-06-17T03:37:00.085Z,12.13
2023-06-17T03:39:27.565Z,11.63
2023-06-17T03:41:56.288Z,12.70
2023-06-17T03:44:23.703Z,12.17
2023-06-17T03:46:51.158Z,12.37
2023-06-17T03:49:18.607Z,11.50
2023-06-17T03:51:46.071Z,12.80
2023-06-17T03:54:13.478Z,12.30
2023-06-17T03:56:41.404Z,13.00
2023-06-17T03:59:12.149Z,16.67
2023-06-17T04:01:41.372Z,13.93
2023-06-17T04:04:08.960Z,12.67
2023-06-17T04:06:37.138Z,13.50
2023-06-17T04:09:05.019Z,13.67
2023-06-17T04:11:34.032Z,13.30
2023-06-17T04:14:01.632Z,13.70
2023-06-17T04:16:31.776Z,14.07
2023-06-17T04:18:59.572Z,12.53
2023-06-17T04:21:27.690Z,13.83
2023-06-17T04:23:55.177Z,15.10
2023-06-17T04:26:24.013Z,13.37
2023-06-17T04:28:51.479Z,13.43
2023-06-17T04:31:18.920Z,13.37
2023-06-17T04:33:47.783Z,14.07
2023-06-17T04:36:15.561Z,14.23
2023-06-17T04:38:43.066Z,14.33
2023-06-17T04:41:10.581Z,13.43
2023-06-17T04:43:38.847Z,15.37
2023-06-17T04:46:07.119Z,14.07
2023-06-17T04:48:34.859Z,15.27
2023-06-17T04:51:03.692Z,14.80
2023-06-17T04:53:31.136Z,15.47
2023-06-17T04:55:58.735Z,16.87
2023-06-17T04:58:26.269Z,14.30
2023-06-17T05:00:53.787Z,15.87
2023-06-17T05:03:21.284Z,16.47
2023-06-17T05:05:48.928Z,15.93
2023-06-17T05:08:17.699Z,15.83
2023-06-17T05:10:45.171Z,17.47
2023-06-17T05:13:12.607Z,17.63
2023-06-17T05:15:40.040Z,18.80
2023-06-17T05:18:07.592Z,19.23
2023-06-17T05:20:35.138Z,18.03
2023-06-17T05:23:02.660Z,18.00
2023-06-17T05:25:31.397Z,18.00
2023-06-17T05:27:58.850Z,19.90
2023-06-17T05:30:26.336Z,19.07
2023-06-17T05:32:53.859Z,17.97
2023-06-17T05:35:21.414Z,18.47
2023-06-17T05:37:48.878Z,18.73
2023-06-17T05:40:16.418Z,19.27
2023-06-17T05:42:45.166Z,18.37
2023-06-17T05:45:12.799Z,17.97
2023-06-17T05:47:40.312Z,18.77
2023-06-17T05:50:08.154Z,16.13
2023-06-17T05:52:35.585Z,16.37
2023-06-17T05:55:03.012Z,16.53
2023-06-17T05:57:30.640Z,14.53
2023-06-17T05:59:59.412Z,16.30
2023-06-17T06:02:26.889Z,16.10
2023-06-17T06:04:54.357Z,16.43
2023-06-17T06:07:21.785Z,17.00
2023-06-17T06:09:49.451Z,15.03
2023-06-17T06:12:16.877Z,13.67
2023-06-17T06:14:44.949Z,15.80
2023-06-17T06:17:13.756Z,16.07
2023-06-17T06:19:41.181Z,15.60
2023-06-17T06:22:08.702Z,16.23
2023-06-17T06:24:36.169Z,15.87
2023-06-17T06:27:03.676Z,15.53
2023-06-17T06:29:31.169Z,55.70
2023-06-17T06:31:58.587Z,49.23
2023-06-17T06:34:27.312Z,54.08
2023-06-17T06:36:56.342Z,40.20
2023-06-17T06:39:23.850Z,29.88
2023-06-17T06:41:51.305Z,24.92
2023-06-17T06:44:19.228Z,22.83
2023-06-17T06:46:47.758Z,20.27
2023-06-17T06:49:15.268Z,18.15
2023-06-17T06:51:43.998Z,16.83
2023-06-17T06:54:11.467Z,16.10
2023-06-17T06:56:38.890Z,14.07
2023-06-17T06:59:06.413Z,14.88
2023-06-17T07:01:33.896Z,17.45
2023-06-17T07:04:01.479Z,13.52
2023-06-17T07:06:28.928Z,12.77
2023-06-17T07:08:57.673Z,16.60
2023-06-17T07:11:25.096Z,13.13
2023-06-17T07:13:52.557Z,13.52
2023-06-17T07:16:20.188Z,16.60
2023-06-17T07:18:47.642Z,10.75
2023-06-17T07:21:15.065Z,13.60
2023-06-17T07:23:42.516Z,15.20
2023-06-17T07:26:11.263Z,14.10
2023-06-17T07:28:38.706Z,14.50
2023-06-17T07:31:06.586Z,15.50
2023-06-17T07:33:34.163Z,15.55
2023-06-17T07:36:01.606Z,16.15
2023-06-17T07:38:29.068Z,15.90
2023-06-17T07:40:56.535Z,16.53
2023-06-17T07:43:25.362Z,15.65
2023-06-17T07:45:52.862Z,16.58
2023-06-17T07:48:20.478Z,17.92
2023-06-17T07:50:47.891Z,15.70
2023-06-17T07:53:16.357Z,16.08
2023-06-17T07:55:43.937Z,16.42
2023-06-17T07:58:11.692Z,17.30
2023-06-17T08:00:40.445Z,16.17
2023-06-17T08:03:09.144Z,16.67
2023-06-17T08:05:38.021Z,15.93
2023-06-17T08:08:05.822Z,16.52
2023-06-17T08:10:33.717Z,15.63
2023-06-17T08:13:01.238Z,16.65
2023-06-17T08:15:29.388Z,16.23
2023-06-17T08:17:58.311Z,15.80
2023-06-17T08:20:25.996Z,17.10
2023-06-17T08:22:53.523Z,16.65
2023-06-17T08:25:21.765Z,17.20
2023-06-17T08:27:49.486Z,15.18
2023-06-17T08:30:17.069Z,17.45
2023-06-17T08:32:44.740Z,16.00
2023-06-17T08:35:15.453Z,15.48
2023-06-17T08:37:42.969Z,15.20
2023-06-17T08:40:11.157Z,16.65
2023-06-17T08:42:40.340Z,15.02
2023-06-17T08:45:08.887Z,15.17
2023-06-17T08:47:36.916Z,15.40
2023-06-17T08:50:05.211Z,15.85
2023-06-17T08:52:35.778Z,14.83
2023-06-17T08:55:04.044Z,13.63
2023-06-17T08:57:32.862Z,12.93
2023-06-17T09:00:00.482Z,12.68
2023-06-17T09:02:29.027Z,15.10
2023-06-17T09:04:56.756Z,14.75
2023-06-17T09:07:26.755Z,14.80
2023-06-17T09:09:56.797Z,13.13
2023-06-17T09:12:26.437Z,13.68
2023-06-17T09:14:55.688Z,12.90
2023-06-17T09:17:33.584Z,13.15
2023-06-17T09:20:11.278Z,13.10
2023-06-17T09:22:41.652Z,13.68
2023-06-17T09:25:15.503Z,13.30
2023-06-17T09:27:58.411Z,13.70
2023-06-17T09:30:30.355Z,16.50
2023-06-17T09:32:57.863Z,14.48
2023-06-17T09:35:25.478Z,13.90
2023-06-17T09:38:03.124Z,12.93
2023-06-17T09:40:35.121Z,12.55
2023-06-17T09:45:33.842Z,13.68
2023-06-17T09:48:01.284Z,15.32
2023-06-17T09:50:28.719Z,12.60
2023-06-17T09:52:57.043Z,13.45
2023-06-17T09:55:24.829Z,13.77
2023-06-17T09:57:54.805Z,13.40
2023-06-17T10:00:26.563Z,12.48
2023-06-17T10:02:55.125Z,12.15
2023-06-17T10:05:24.922Z,11.88
2023-06-17T10:07:54.829Z,12.65
2023-06-17T10:10:24.545Z,13.20
2023-06-17T10:12:56.882Z,12.10
2023-06-17T10:15:26.235Z,12.73
2023-06-17T10:17:55.899Z,11.50
2023-06-17T10:20:26.051Z,12.30
2023-06-17T10:22:56.058Z,11.45
2023-06-17T10:25:25.363Z,10.80
2023-06-17T10:27:54.617Z,10.65
2023-06-17T10:30:24.914Z,10.40
2023-06-17T10:33:00.268Z,10.18
2023-06-17T10:35:38.851Z,10.90
2023-06-17T10:38:07.628Z,10.65
2023-06-17T10:40:37.285Z,10.77
2023-06-17T10:43:22.154Z,10.70
2023-06-17T10:45:52.194Z,9.48
2023-06-17T10:48:23.341Z,11.00
2023-06-17T10:50:56.303Z,10.90
2023-06-17T10:53:29.283Z,10.48
2023-06-17T10:55:58.344Z,10.57
2023-06-17T10:58:32.810Z,10.55
2023-06-17T11:01:05.296Z,9.75
2023-06-17T11:03:33.139Z,9.35
2023-06-17T11:06:02.152Z,9.90
2023-06-17T11:08:31.292Z,9.45
2023-06-17T11:11:12.904Z,10.95
2023-06-17T11:13:43.062Z,10.27
2023-06-17T11:16:11.579Z,9.73
2023-06-17T11:18:40.076Z,9.25
2023-06-17T11:21:07.977Z,10.43
2023-06-17T11:23:36.855Z,10.90
2023-06-17T11:26:06.114Z,10.80
2023-06-17T11:28:33.995Z,9.85
2023-06-17T11:31:03.862Z,3.97
2023-06-17T11:33:32.117Z,6.18
2023-06-17T11:35:59.650Z,7.72
2023-06-17T11:38:28.301Z,9.13
2023-06-17T11:40:56.966Z,9.77
2023-06-17T11:43:27.321Z,8.90
2023-06-17T11:45:58.698Z,9.13
2023-06-17T11:48:31.381Z,6.07
2023-06-17T11:50:58.967Z,4.57
2023-06-17T11:53:30.683Z,5.38
2023-06-17T11:56:03.606Z,6.38
2023-06-17T11:58:31.291Z,4.63
2023-06-17T12:01:02.456Z,7.50
2023-06-17T12:03:31.290Z,6.80
2023-06-17T12:05:59.040Z,4.90
2023-06-17T12:08:32.363Z,6.30
2023-06-17T12:11:00.016Z,4.53
2023-06-17T12:13:38.608Z,6.60
2023-06-17T12:16:10.558Z,5.87
2023-06-17T12:18:39.377Z,5.13
2023-06-17T12:21:11.932Z,7.17
2023-06-17T12:23:39.416Z,6.72
2023-06-17T12:26:07.005Z,6.90
2023-06-17T12:28:34.500Z,6.30
2023-06-17T12:31:03.233Z,6.45
2023-06-17T12:33:31.010Z,6.57
2023-06-17T12:36:00.634Z,6.40
2023-06-17T12:38:30.486Z,5.72
2023-06-17T12:40:58.257Z,6.83
2023-06-17T12:43:25.728Z,5.35
2023-06-17T12:45:53.217Z,6.97
2023-06-17T12:48:20.677Z,5.40
2023-06-17T12:50:48.289Z,5.30
2023-06-17T12:53:17.137Z,8.27
2023-06-17T12:55:44.717Z,5.00
2023-06-17T12:58:13.010Z,5.30
2023-06-17T13:00:41.603Z,6.25
2023-06-17T13:03:09.558Z,4.97
2023-06-17T13:05:37.038Z,5.53
2023-06-17T13:08:04.677Z,4.80
2023-06-17T13:10:34.293Z,5.85
2023-06-17T13:13:01.818Z,5.28
2023-06-17T13:15:30.766Z,4.18
2023-06-17T13:17:58.429Z,4.45
2023-06-17T13:20:26.751Z,5.72
2023-06-17T13:22:54.251Z,4.63
2023-06-17T13:25:21.683Z,5.57
2023-06-17T13:27:50.486Z,6.18
2023-06-17T13:30:18.386Z,6.60
2023-06-17T13:32:46.091Z,5.88
2023-06-17T13:35:13.597Z,6.13
2023-06-17T13:37:41.006Z,5.30
2023-06-17T13:40:09.588Z,6.05
2023-06-17T13:42:37.025Z,6.82
2023-06-17T13:45:07.078Z,6.30
2023-06-17T13:47:34.643Z,6.50
2023-06-17T13:50:02.623Z,6.88
2023-06-17T13:52:30.121Z,7.45
2023-06-17T13:54:57.604Z,8.05
2023-06-17T13:57:25.060Z,7.75
2023-06-17T13:59:52.506Z,6.82
2023-06-17T14:02:21.366Z,5.80
2023-06-17T14:04:49.490Z,5.97
2023-06-17T14:07:16.934Z,5.22
2023-06-17T14:09:44.509Z,5.57
2023-06-17T14:12:12.124Z,5.07
2023-06-17T14:14:39.731Z,4.45
2023-06-17T14:17:07.611Z,4.55
2023-06-17T14:19:36.623Z,3.45
2023-06-17T14:22:07.007Z,4.10
2023-06-17T14:24:39.745Z,3.90
2023-06-17T14:27:40.847Z,6.40
2023-06-17T14:30:11.171Z,9.50
2023-06-17T14:32:39.033Z,6.22
2023-06-17T14:35:09.879Z,6.43
2023-06-17T14:37:37.641Z,5.18
2023-06-17T14:40:05.817Z,5.40
2023-06-17T14:42:34.000Z,4.75
2023-06-17T14:45:01.729Z,4.63
2023-06-17T14:47:29.442Z,4.75
2023-06-17T14:49:56.993Z,4.75
2023-06-17T14:52:27.121Z,5.05
2023-06-17T14:54:54.862Z,9.15
2023-06-17T14:57:22.817Z,5.82
2023-06-17T14:59:50.591Z,5.43
2023-06-17T15:02:36.595Z,5.35
2023-06-17T15:05:04.143Z,5.43
2023-06-17T15:07:32.913Z,5.60
2023-06-17T15:10:00.327Z,5.07
2023-06-17T15:12:27.774Z,5.03
2023-06-17T15:14:55.681Z,6.60
2023-06-17T15:17:23.219Z,6.25
2023-06-17T15:19:50.669Z,5.32
2023-06-17T15:22:18.123Z,5.65
2023-06-17T15:24:46.879Z,5.85
2023-06-17T15:27:14.366Z,5.55
2023-06-17T15:29:41.816Z,5.00
2023-06-17T15:32:09.705Z,6.97
2023-06-17T15:34:37.136Z,5.13
2023-06-17T15:37:05.243Z,5.55
2023-06-17T15:39:33.491Z,5.97
2023-06-17T15:42:02.291Z,5.38
2023-06-17T15:44:29.719Z,5.50
2023-06-17T15:46:57.175Z,6.20
2023-06-17T15:49:24.686Z,7.30
2023-06-17T15:51:52.156Z,8.90
2023-06-17T15:54:20.267Z,7.03
2023-06-17T15:56:47.887Z,6.20
2023-06-17T15:59:16.782Z,6.20
2023-06-17T16:01:44.519Z,6.10
2023-06-17T16:04:32.316Z,4.82
2023-06-17T16:07:00.176Z,5.47
2023-06-17T16:09:29.137Z,8.13
2023-06-17T16:11:56.564Z,5.53
2023-06-17T16:14:25.370Z,5.45
2023-06-17T16:16:52.961Z,5.65
2023-06-17T16:19:22.560Z,5.03
2023-06-17T16:21:50.492Z,5.75
2023-06-17T16:24:18.012Z,6.00
2023-06-17T16:26:45.499Z,6.07
2023-06-17T16:29:13.386Z,5.70
2023-06-17T16:31:42.225Z,5.82
2023-06-17T16:34:09.699Z,5.20
2023-06-17T16:36:37.160Z,6.55
2023-06-17T16:39:04.878Z,5.22
2023-06-17T16:41:32.345Z,6.13
2023-06-17T16:43:59.755Z,5.78
2023-06-17T16:46:27.241Z,6.25
2023-06-17T16:48:56.088Z,5.90
2023-06-17T16:51:23.547Z,5.72
2023-06-17T16:53:51.019Z,6.18
2023-06-17T16:56:18.609Z,5.10
2023-06-17T16:58:46.031Z,5.88
2023-06-17T17:01:13.505Z,5.72
2023-06-17T17:03:41.050Z,6.10
2023-06-17T17:06:10.023Z,8.45
2023-06-17T17:08:37.470Z,6.18
2023-06-17T17:11:05.172Z,6.07
2023-06-17T17:13:47.118Z,6.13
2023-06-17T17:16:15.834Z,6.03
2023-06-17T17:18:43.305Z,5.28
2023-06-17T17:21:12.105Z,6.20
2023-06-17T17:23:42.130Z,5.78
2023-06-17T17:26:12.970Z,5.32
2023-06-17T17:28:40.751Z,5.30
2023-06-17T17:31:08.239Z,4.82
2023-06-17T17:33:35.841Z,4.80
2023-06-17T17:36:03.444Z,6.95
2023-06-17T17:38:32.427Z,4.45
2023-06-17T17:40:59.881Z,4.20
2023-06-17T17:43:30.546Z,4.88
2023-06-17T17:45:58.547Z,4.70
2023-06-17T17:48:26.188Z,5.40
2023-06-17T17:50:53.622Z,3.90
2023-06-17T17:53:21.405Z,6.43
2023-06-17T17:55:50.402Z,4.47
2023-06-17T17:58:18.431Z,4.28
2023-06-17T18:00:46.501Z,5.47
2023-06-17T18:03:14.442Z,4.57
2023-06-17T18:05:41.948Z,8.05
2023-06-17T18:08:09.510Z,4.70
2023-06-17T18:10:36.970Z,4.47
2023-06-17T18:13:05.835Z,4.57
2023-06-17T18:15:33.276Z,4.30
2023-06-17T18:18:01.232Z,4.90
2023-06-17T18:20:28.744Z,5.80
2023-06-17T18:22:56.518Z,5.22
2023-06-17T18:25:23.958Z,5.20
2023-06-17T18:27:51.421Z,5.20
2023-06-17T18:30:20.544Z,4.72
2023-06-17T18:32:48.264Z,5.43
2023-06-17T18:35:15.957Z,6.47
2023-06-17T18:37:43.595Z,5.28
2023-06-17T18:40:12.171Z,5.13
2023-06-17T18:42:39.650Z,5.30
2023-06-17T18:45:09.775Z,5.18
2023-06-17T18:47:38.914Z,5.32
2023-06-17T18:50:07.830Z,8.35
2023-06-17T18:52:35.334Z,7.25
2023-06-17T18:55:02.780Z,6.50
2023-06-17T18:57:30.635Z,8.70
2023-06-17T18:59:58.129Z,15.05
2023-06-17T19:02:27.214Z,7.97
2023-06-17T19:04:56.861Z,9.20
2023-06-17T19:07:24.352Z,11.20
2023-06-17T19:09:51.951Z,7.68
2023-06-17T19:12:19.708Z,18.35
2023-06-17T19:14:47.231Z,31.10
2023-06-17T19:17:14.726Z,106.45
2023-06-17T19:19:42.263Z,17.47
2023-06-17T19:22:11.035Z,10.90
2023-06-17T19:24:38.652Z,8.45
2023-06-17T19:27:06.616Z,7.43
2023-06-17T19:29:34.055Z,14.35
2023-06-17T19:32:01.509Z,15.60
2023-06-17T19:34:28.918Z,37.60
2023-06-17T19:36:56.431Z,12.48
2023-06-17T19:39:25.187Z,16.63
2023-06-17T19:41:52.640Z,39.28
2023-06-17T19:44:20.094Z,31.00
2023-06-17T19:46:47.587Z,56.83
2023-06-17T19:49:15.098Z,45.20
2023-06-17T19:51:42.513Z,12.07
2023-06-17T19:54:10.042Z,8.77
2023-06-17T19:56:38.810Z,9.63
2023-06-17T19:59:06.322Z,9.77
2023-06-17T20:01:33.819Z,9.05
2023-06-17T20:04:01.291Z,10.35
2023-06-17T20:06:28.820Z,11.02
2023-06-17T20:08:56.265Z,13.83
2023-06-17T20:11:25.658Z,10.27
2023-06-17T20:13:54.518Z,13.87
2023-06-17T20:16:22.293Z,11.73
2023-06-17T20:18:49.801Z,11.33
2023-06-17T20:21:17.746Z,12.18
2023-06-17T20:23:45.231Z,17.83
2023-06-17T20:26:12.722Z,17.77
2023-06-17T20:28:40.228Z,12.97
2023-06-17T20:31:09.865Z,13.37
2023-06-17T20:33:38.828Z,14.10
2023-06-17T20:36:06.797Z,16.30
2023-06-17T20:38:34.266Z,17.83
2023-06-17T20:41:02.499Z,17.33
2023-06-17T20:43:30.038Z,17.23
2023-06-17T20:45:57.939Z,13.33
2023-06-17T20:48:30.069Z,12.73
2023-06-17T20:50:57.533Z,13.63
2023-06-17T20:53:25.003Z,12.40
2023-06-17T20:55:52.471Z,14.23
2023-06-17T20:58:19.906Z,13.23
2023-06-17T21:00:47.558Z,12.07
2023-06-17T21:03:15.495Z,15.50
2023-06-17T21:05:44.405Z,14.48
2023-06-17T21:08:11.854Z,17.87
2023-06-17T21:10:39.413Z,20.47
2023-06-17T21:13:07.167Z,15.27
2023-06-17T21:15:34.625Z,20.20
2023-06-17T21:18:02.198Z,16.37
2023-06-17T21:20:29.887Z,15.80
2023-06-17T21:23:00.774Z,15.53
2023-06-17T21:25:28.421Z,15.20
2023-06-17T21:27:56.487Z,15.33
2023-06-17T21:30:24.575Z,14.73
2023-06-17T21:32:52.265Z,16.47
2023-06-17T21:35:19.746Z,19.80
2023-06-17T21:37:47.355Z,23.87
2023-06-17T21:40:16.446Z,21.67
2023-06-17T21:42:43.875Z,17.53
2023-06-17T21:45:11.722Z,23.37
2023-06-17T21:47:39.186Z,31.77
2023-06-17T21:50:07.933Z,21.80
2023-06-17T21:52:35.411Z,19.07
2023-06-17T21:55:03.989Z,38.67
2023-06-17T21:57:32.962Z,18.17
2023-06-17T22:00:00.538Z,18.53
2023-06-17T22:02:28.328Z,38.67
2023-06-17T22:04:55.976Z,36.63
2023-06-17T22:07:23.423Z,29.40
2023-06-17T22:09:51.010Z,23.45
2023-06-17T22:12:18.575Z,24.33
2023-06-17T22:14:47.363Z,16.43
2023-06-17T22:17:14.810Z,17.87
2023-06-17T22:19:42.313Z,18.40
2023-06-17T22:22:09.770Z,17.83
2023-06-17T22:24:38.672Z,18.93
2023-06-17T22:27:07.575Z,21.77
2023-06-17T22:29:34.980Z,24.83
2023-06-17T22:32:03.955Z,24.73
2023-06-17T22:34:31.378Z,31.70
2023-06-17T22:36:58.857Z,38.97
2023-06-17T22:39:26.268Z,54.77
2023-06-17T22:41:53.955Z,25.40
2023-06-17T22:44:21.758Z,37.80
2023-06-17T22:46:49.364Z,26.13
2023-06-17T22:49:18.211Z,27.93
2023-06-17T22:51:45.685Z,28.17
2023-06-17T22:54:13.702Z,39.50
2023-06-17T22:56:41.974Z,51.93
2023-06-17T22:59:09.442Z,30.07
2023-06-17T23:01:36.908Z,24.63
2023-06-17T23:04:04.456Z,37.40
2023-06-17T23:06:33.265Z,26.37
2023-06-17T23:09:00.693Z,24.20
2023-06-17T23:11:28.129Z,25.17
2023-06-17T23:13:55.830Z,21.37
2023-06-17T23:16:23.297Z,21.23
2023-06-17T23:18:50.745Z,25.57
2023-06-17T23:21:19.773Z,30.43
2023-06-17T23:23:49.706Z,27.30
2023-06-17T23:26:17.643Z,22.83
2023-06-17T23:28:45.518Z,25.10
2023-06-17T23:31:14.981Z,24.27
2023-06-17T23:33:42.636Z,39.07
2023-06-17T23:36:10.393Z,29.57
2023-06-17T23:38:40.668Z,33.00
2023-06-17T23:41:09.559Z,34.83
2023-06-17T23:43:37.018Z,37.63
2023-06-17T23:46:04.735Z,40.87
2023-06-17T23:48:33.059Z,38.07
2023-06-17T23:51:00.651Z,43.07
2023-06-17T23:53:28.140Z,23.60
2023-06-17T23:55:56.006Z,35.00
2023-06-17T23:58:26.129Z,24.27
